createdAt,value
2022-08-19T00:03:05.424Z,15.9
2022-08-19T00:05:09.275Z,14.5
2022-08-19T00:07:16.396Z,16.1
2022-08-19T00:09:20.225Z,15.7
2022-08-19T00:11:25.704Z,15
2022-08-19T00:13:27.876Z,16.9
2022-08-19T00:15:31.711Z,16.3
2022-08-19T00:17:35.572Z,15.5
2022-08-19T00:19:39.413Z,17.4
2022-08-19T00:27:58.078Z,15.8
2022-08-19T00:30:01.893Z,16.1
2022-08-19T00:32:05.764Z,14.7
2022-08-19T00:34:09.680Z,15.2
2022-08-19T00:38:36.807Z,16.1
2022-08-19T00:40:24.405Z,16.3
2022-08-19T00:42:28.228Z,15.6
2022-08-19T00:44:32.086Z,16.8
2022-08-19T00:46:35.931Z,14.7
2022-08-19T00:48:39.765Z,15.8
2022-08-19T00:52:50.870Z,15.9
2022-08-19T00:55:58.139Z,16.8
2022-08-19T00:58:01.972Z,15.3
2022-08-19T01:00:05.891Z,15
2022-08-19T01:02:09.750Z,13.9
2022-08-19T01:04:18.529Z,15.9
2022-08-19T01:08:26.155Z,16.1
2022-08-19T01:10:34.765Z,17.6
2022-08-19T01:25:00.228Z,16.1
2022-08-19T01:29:07.901Z,16.8
2022-08-19T01:35:22.743Z,15.6
2022-08-19T01:37:27.242Z,14.6
2022-08-19T01:39:30.443Z,16.3
2022-08-19T01:43:38.168Z,16.1
2022-08-19T01:48:01.088Z,17
2022-08-19T01:51:56.788Z,16.3
2022-08-19T01:53:02.425Z,16.5
2022-08-19T01:57:08.048Z,16.6
2022-08-19T01:59:11.892Z,16.6
2022-08-19T02:01:19.046Z,16.1
2022-08-19T02:03:22.846Z,17.2
2022-08-19T02:05:26.698Z,15.7
2022-08-19T02:07:30.567Z,15.3
2022-08-19T02:09:34.424Z,16.1
2022-08-19T02:11:38.278Z,16.8
2022-08-19T02:13:42.112Z,17.1
2022-08-19T02:15:49.241Z,18
2022-08-19T02:17:53.076Z,17.7
2022-08-19T02:19:56.934Z,15.7
2022-08-19T02:22:00.741Z,16.5
2022-08-19T02:26:08.439Z,16.1
2022-08-19T02:28:14.605Z,16
2022-08-19T02:30:19.425Z,17.3
2022-08-19T02:32:23.296Z,15.8
2022-08-19T02:34:27.143Z,16.7
2022-08-19T02:36:30.997Z,16.5
2022-08-19T02:38:34.868Z,16.1
2022-08-19T02:40:38.721Z,16.7
2022-08-19T02:42:42.599Z,14.8
2022-08-19T02:44:49.745Z,16.9
2022-08-19T02:46:53.598Z,15.2
2022-08-19T02:48:57.422Z,16.5
2022-08-19T02:51:22.397Z,16.5
2022-08-19T02:53:26.264Z,17.4
2022-08-19T02:55:30.126Z,15.6
2022-08-19T02:57:37.254Z,18.3
2022-08-19T03:05:56.927Z,16.4
2022-08-19T03:07:56.459Z,16.5
2022-08-19T03:10:00.300Z,15
2022-08-19T03:12:07.418Z,18.9
2022-08-19T03:16:15.114Z,17.3
2022-08-19T03:18:18.962Z,16.9
2022-08-19T03:20:22.809Z,15.1
2022-08-19T03:22:26.672Z,15.5
2022-08-19T03:24:30.515Z,17.3
2022-08-19T03:26:37.616Z,18
2022-08-19T03:32:51.403Z,18.2
2022-08-19T03:34:53.020Z,17.9
2022-08-19T03:36:56.907Z,16.4
2022-08-19T03:39:00.755Z,16.9
2022-08-19T03:41:07.904Z,17.1
2022-08-19T03:43:11.761Z,19
2022-08-19T03:46:19.131Z,18.5
2022-08-19T03:48:22.954Z,17.9
2022-08-19T03:50:26.810Z,18
2022-08-19T03:52:30.627Z,16
2022-08-19T03:54:37.789Z,16.8
2022-08-19T03:56:41.657Z,17.3
2022-08-19T03:58:45.498Z,15.8
2022-08-19T04:00:49.394Z,16.8
2022-08-19T04:02:56.426Z,15.9
2022-08-19T04:04:57.048Z,15
2022-08-19T04:07:00.879Z,15.5
2022-08-19T04:09:08.027Z,15.6
2022-08-19T04:11:11.864Z,16.7
2022-08-19T04:13:15.708Z,14.6
2022-08-19T04:15:19.558Z,15.9
2022-08-19T04:17:23.398Z,16.9
2022-08-19T04:19:27.219Z,16.5
2022-08-19T04:21:31.096Z,15.5
2022-08-19T04:23:38.181Z,15.1
2022-08-19T04:25:42.042Z,16.2
2022-08-19T04:27:45.869Z,14.6
2022-08-19T04:36:01.276Z,15.8
2022-08-19T04:38:08.428Z,16.5
2022-08-19T04:40:12.382Z,16.1
2022-08-19T04:42:16.093Z,15.5
2022-08-19T04:43:19.687Z,16.9
2022-08-19T04:47:49.187Z,16.2
2022-08-19T04:51:38.364Z,16.8
2022-08-19T04:55:46.071Z,17.6
2022-08-19T04:57:49.912Z,16.2
2022-08-19T04:59:53.772Z,15.6
2022-08-19T05:01:57.632Z,16.8
2022-08-19T05:04:01.502Z,18.4
2022-08-19T05:06:24.954Z,18.7
2022-08-19T05:08:40.572Z,18.7
2022-08-19T05:10:16.316Z,18.2
2022-08-19T05:12:20.142Z,18.5
2022-08-19T05:14:23.999Z,17.1
2022-08-19T05:16:27.827Z,17
2022-08-19T05:18:31.659Z,17.8
2022-08-19T05:20:38.771Z,18.5
2022-08-19T05:22:42.644Z,16.5
2022-08-19T05:25:09.291Z,18.1
2022-08-19T05:26:50.331Z,17.9
2022-08-19T05:30:58.028Z,17
2022-08-19T05:33:01.842Z,17.3
2022-08-19T05:35:09.000Z,18.6
2022-08-19T05:37:12.825Z,17.8
2022-08-19T05:39:16.687Z,18.1
2022-08-19T05:40:20.294Z,18.7
2022-08-19T05:42:24.282Z,19.8
2022-08-19T05:44:27.970Z,21.2
2022-08-19T05:46:31.843Z,21.3
2022-08-19T05:48:38.944Z,22.1
2022-08-19T05:50:42.832Z,21.8
2022-08-19T05:52:50.118Z,23.7
2022-08-19T05:54:51.351Z,22.3
2022-08-19T05:56:54.322Z,22.9
2022-08-19T06:01:02.023Z,20.7
2022-08-19T06:03:12.628Z,22.2
2022-08-19T06:07:16.801Z,18.5
2022-08-19T06:13:28.328Z,18.1
2022-08-19T06:17:39.237Z,16.9
2022-08-19T06:21:47.107Z,15.6
2022-08-19T06:23:50.725Z,17.1
2022-08-19T06:25:54.514Z,17.4
2022-08-19T06:28:14.653Z,16.7
2022-08-19T06:30:02.181Z,16.1
2022-08-19T06:34:13.083Z,16.9
2022-08-19T06:36:16.889Z,16.5
2022-08-19T06:38:41.260Z,19.8
2022-08-19T06:46:59.761Z,18.5
2022-08-19T06:51:08.620Z,16.7
2022-08-19T07:11:49.957Z,14.5
2022-08-19T07:13:56.894Z,14.7
2022-08-19T07:16:00.645Z,15.6
2022-08-19T07:18:04.421Z,16.3
2022-08-19T07:20:09.403Z,17.4
2022-08-19T07:22:13.132Z,18.3
2022-08-19T07:24:15.291Z,18
2022-08-19T07:30:20.287Z,19
2022-08-19T08:19:02.003Z,19
2022-08-19T19:08:19.313Z,14.5
2022-08-19T19:10:23.099Z,12.5
2022-08-19T19:12:26.852Z,12.5
2022-08-19T19:16:55.391Z,12.8
2022-08-19T19:18:59.169Z,14
2022-08-19T19:21:06.239Z,13.1
2022-08-19T19:23:10.038Z,12.8
2022-08-19T19:25:13.824Z,12.6
2022-08-19T19:27:17.605Z,13.1
2022-08-19T19:29:21.392Z,12.4
2022-08-19T19:31:25.149Z,12.9
2022-08-19T19:33:28.933Z,11.9
2022-08-19T19:35:35.987Z,13
2022-08-19T19:39:46.664Z,12.3
2022-08-19T19:41:47.329Z,12.2
2022-08-19T19:45:54.880Z,12.6
2022-08-19T19:47:58.664Z,12.1
2022-08-19T19:50:16.274Z,14.1
2022-08-19T19:52:09.904Z,11.5
2022-08-19T19:54:13.246Z,12.9
2022-08-19T19:58:28.302Z,12.6
2022-08-19T20:02:28.385Z,13.9
2022-08-19T20:04:35.443Z,13.8
2022-08-19T20:06:39.228Z,13.3
2022-08-19T20:08:42.981Z,13.5
2022-08-19T20:09:59.322Z,15.1
2022-08-19T20:13:54.162Z,13
2022-08-19T20:15:57.908Z,13.1
2022-08-19T20:18:04.991Z,14.8
2022-08-19T20:20:08.783Z,13.7
2022-08-19T20:22:12.566Z,13.3
2022-08-19T20:24:16.356Z,14
2022-08-19T20:26:32.449Z,14.4
2022-08-19T20:28:23.908Z,14
2022-08-19T20:30:27.675Z,13.9
2022-08-19T20:32:34.753Z,14.1
2022-08-19T20:34:38.542Z,14.8
2022-08-19T20:36:42.322Z,14.6
2022-08-19T20:38:46.122Z,13.6
2022-08-19T20:40:49.891Z,12.8
2022-08-19T20:42:53.712Z,12.4
2022-08-19T20:44:57.510Z,12.5
2022-08-19T20:47:04.594Z,13
2022-08-19T20:49:08.381Z,11.9
2022-08-19T20:51:12.156Z,12.3
2022-08-19T20:53:15.953Z,12.4
2022-08-19T20:55:19.709Z,12
2022-08-19T20:57:23.515Z,11.9
2022-08-19T20:59:27.274Z,12.4
2022-08-19T21:01:34.392Z,12.3
2022-08-19T21:03:42.979Z,11.3
2022-08-19T21:05:41.958Z,11.9
2022-08-19T21:06:46.050Z,12.1
2022-08-19T21:08:49.282Z,10.5
2022-08-19T21:10:53.078Z,10.9
2022-08-19T21:12:56.893Z,9.4
2022-08-19T21:15:03.948Z,10.9
2022-08-19T21:17:07.738Z,11.3
2022-08-19T21:19:11.507Z,10.8
2022-08-19T21:23:19.083Z,10.5
2022-08-19T21:27:26.691Z,9
2022-08-19T21:29:33.776Z,9.2
2022-08-19T21:31:37.572Z,8.8
2022-08-19T21:33:41.359Z,9.5
2022-08-19T21:35:45.144Z,9.3
2022-08-19T21:37:48.948Z,9.1
2022-08-19T21:39:52.813Z,9
2022-08-19T21:48:11.172Z,8.2
2022-08-19T21:50:14.969Z,7.7
2022-08-19T21:52:18.754Z,9.3
2022-08-19T21:54:22.568Z,8.8
2022-08-19T21:58:33.457Z,8.5
2022-08-19T22:00:37.250Z,8.3
2022-08-19T22:02:41.019Z,8.6
2022-08-19T22:03:44.567Z,7.9
2022-08-19T22:05:48.368Z,8.6
2022-08-19T22:07:52.147Z,8.2
2022-08-19T22:09:55.981Z,8
2022-08-19T22:12:03.077Z,8.4
2022-08-19T22:16:10.623Z,8.1
2022-08-19T22:18:14.452Z,7.4
2022-08-19T22:20:18.262Z,7.2
2022-08-19T22:22:22.065Z,7.5
2022-08-19T22:24:25.847Z,6.9
2022-08-19T22:26:32.942Z,7.4
2022-08-19T22:28:36.760Z,7.6
2022-08-19T22:30:41.815Z,7.8
2022-08-19T22:32:44.347Z,8.3
2022-08-19T22:34:48.158Z,6.9
2022-08-19T22:36:51.942Z,7.3
2022-08-19T22:38:55.782Z,6.8
2022-08-19T22:41:02.856Z,6.7
2022-08-19T22:43:06.657Z,6
2022-08-19T22:45:10.464Z,7.1
2022-08-19T22:47:14.259Z,6.9
2022-08-19T22:49:18.089Z,7.7
2022-08-19T22:51:21.895Z,6.6
2022-08-19T22:53:25.686Z,7.2
2022-08-19T22:55:32.755Z,7.5
2022-08-19T22:57:36.564Z,7.1
2022-08-19T22:59:41.324Z,7.4
2022-08-19T23:02:02.971Z,8.3
2022-08-19T23:04:06.758Z,8.1
2022-08-19T23:06:10.649Z,7.6
2022-08-19T23:08:17.622Z,7.3
2022-08-19T23:10:27.385Z,8.4
2022-08-19T23:12:25.216Z,7.7
2022-08-19T23:14:28.989Z,8.1
2022-08-19T23:16:32.803Z,8.1
2022-08-19T23:20:40.439Z,8
2022-08-19T23:22:47.532Z,8.9
2022-08-19T23:24:51.335Z,7.7
2022-08-19T23:26:55.105Z,8
2022-08-19T23:28:58.914Z,7.5
2022-08-19T23:31:02.719Z,7.1
2022-08-19T23:33:09.735Z,7.3
2022-08-19T23:35:10.321Z,8
2022-08-19T23:37:17.415Z,7.4
2022-08-19T23:39:21.214Z,7.9
2022-08-19T23:43:28.814Z,7
2022-08-19T23:45:32.755Z,7.2
2022-08-19T23:49:40.240Z,8.5
2022-08-19T23:53:51.153Z,7.1
2022-08-19T23:55:54.924Z,7
2022-08-19T23:56:58.478Z,8.4
2022-08-19T23:59:02.294Z,8.4
